Time;durP1;ratioP1;P1;durP2;ratioP2;P2;SDS_P1;SDS_P2;PMS_P1;PMS_P2;Temp;Humidity;BMP_temperature;BMP_pressure;BME280_temperature;BME280_humidity;BME280_pressure;Samples;Min_cycle;Max_cycle;Signal;HPM_P1;HPM_P2
2022/11/01 00:01:31;;;;;;;17.13;8.10;;;15.90;99.90;;;;;;4942154;28;38501;-80
2022/11/01 00:03:59;;;;;;;12.10;7.32;;;15.90;99.90;;;;;;4933493;28;37769;-80
2022/11/01 00:06:25;;;;;;;20.65;8.32;;;15.90;99.90;;;;;;4925814;28;36919;-80
2022/11/01 00:08:51;;;;;;;17.95;7.65;;;15.90;99.90;;;;;;4955699;28;38589;-81
2022/11/01 00:11:18;;;;;;;13.85;7.38;;;16.00;99.90;;;;;;4924780;28;36627;-80
2022/11/01 00:13:46;;;;;;;18.20;6.95;;;16.00;99.90;;;;;;4927512;28;39669;-80
2022/11/01 00:16:14;;;;;;;16.42;7.32;;;16.00;99.90;;;;;;4943048;28;38550;-80
2022/11/01 00:18:40;;;;;;;17.27;7.10;;;16.00;99.90;;;;;;4937912;28;38265;-80
2022/11/01 00:21:06;;;;;;;14.32;7.22;;;16.00;99.90;;;;;;4925495;28;36469;-79
2022/11/01 00:23:32;;;;;;;18.00;7.05;;;16.00;99.90;;;;;;4940390;28;39087;-80
2022/11/01 00:25:59;;;;;;;17.50;6.88;;;16.10;99.90;;;;;;4921172;28;37926;-80
2022/11/01 00:28:26;;;;;;;11.95;6.50;;;16.10;99.90;;;;;;4928055;28;36821;-81
2022/11/01 00:30:54;;;;;;;14.70;7.30;;;16.10;99.90;;;;;;4942341;28;38659;-80
2022/11/01 00:33:20;;;;;;;13.80;6.60;;;16.10;99.90;;;;;;4938309;28;39544;-81
2022/11/01 00:35:47;;;;;;;17.15;7.10;;;16.10;99.90;;;;;;4923049;28;37436;-81
2022/11/01 00:38:15;;;;;;;14.80;7.28;;;16.10;99.90;;;;;;4942964;28;38225;-80
2022/11/01 00:40:42;;;;;;;13.43;7.43;;;16.20;99.90;;;;;;4930425;28;37522;-82
2022/11/01 00:43:09;;;;;;;20.42;7.28;;;16.20;99.90;;;;;;4924099;28;38925;-80
2022/11/01 00:45:35;;;;;;;12.73;6.35;;;16.30;99.90;;;;;;4938787;28;38276;-81
2022/11/01 00:48:01;;;;;;;12.93;6.20;;;16.30;99.90;;;;;;4924118;28;37347;-80
2022/11/01 00:50:27;;;;;;;14.52;7.13;;;16.30;99.90;;;;;;4934865;28;37237;-80
2022/11/01 00:52:53;;;;;;;10.80;7.20;;;16.30;99.90;;;;;;4939818;28;37713;-80
2022/11/01 00:55:19;;;;;;;14.68;6.93;;;16.30;99.90;;;;;;4943450;28;39016;-80
2022/11/01 00:57:46;;;;;;;12.15;7.25;;;16.30;99.90;;;;;;4940235;28;39080;-80
2022/11/01 01:00:14;;;;;;;9.63;6.90;;;16.30;99.90;;;;;;4942892;28;35739;-79
2022/11/01 01:02:40;;;;;;;14.60;6.72;;;16.40;99.90;;;;;;4940085;28;39430;-79
2022/11/01 01:05:07;;;;;;;16.13;6.78;;;16.50;99.90;;;;;;4931475;28;38170;-80
2022/11/01 01:07:34;;;;;;;19.13;7.40;;;16.60;99.90;;;;;;4939692;28;38255;-80
2022/11/01 01:10:02;;;;;;;14.25;6.75;;;16.60;99.90;;;;;;4953910;28;36857;-79
2022/11/01 01:12:28;;;;;;;14.05;5.93;;;16.60;99.90;;;;;;4940773;28;39992;-80
2022/11/01 01:14:54;;;;;;;12.10;6.47;;;16.70;99.90;;;;;;4944469;28;38737;-80
2022/11/01 01:17:20;;;;;;;14.00;6.22;;;16.70;99.90;;;;;;4938062;28;36988;-80
2022/11/01 01:19:46;;;;;;;14.75;6.32;;;16.70;99.90;;;;;;4935116;28;35444;-81
2022/11/01 01:22:12;;;;;;;12.63;6.07;;;16.80;99.90;;;;;;4942105;28;39685;-81
2022/11/01 01:24:44;;;;;;;11.73;5.72;;;16.80;99.90;;;;;;4945226;28;37534;-81
2022/11/01 01:27:17;;;;;;;12.50;6.45;;;16.80;99.90;;;;;;4951895;28;38226;-81
2022/11/01 01:29:44;;;;;;;12.82;5.57;;;17.10;99.90;;;;;;4944697;28;37704;-81
2022/11/01 01:32:27;;;;;;;13.68;5.85;;;17.10;99.90;;;;;;4939661;28;39020;-80
2022/11/01 01:35:01;;;;;;;12.65;5.40;;;17.20;99.90;;;;;;4958290;28;39436;-81
2022/11/01 01:37:28;;;;;;;12.48;5.43;;;17.20;99.90;;;;;;4947619;28;37874;-80
2022/11/01 01:39:54;;;;;;;9.50;5.28;;;17.20;99.90;;;;;;4968861;28;37224;-80
2022/11/01 01:42:35;;;;;;;12.60;5.18;;;17.30;99.90;;;;;;4953766;28;35782;-81
2022/11/01 01:45:19;;;;;;;9.77;5.18;;;17.30;99.90;;;;;;5128641;23;38779;-80
2022/11/01 01:48:06;;;;;;;10.38;4.97;;;17.50;99.90;;;;;;4970474;23;50244;-81
2022/11/01 01:51:08;;;;;;;15.88;5.28;;;17.50;99.90;;;;;;4972696;28;49627;-79
2022/11/01 01:53:58;;;;;;;13.00;4.50;;;17.50;99.90;;;;;;4994230;23;50267;-80
2022/11/01 01:56:34;;;;;;;11.70;5.30;;;17.40;99.90;;;;;;4982735;28;38398;-79
2022/11/01 01:59:11;;;;;;;12.18;5.28;;;17.40;99.90;;;;;;4965840;28;37115;-82
2022/11/01 02:04:15;;;;;;;8.13;4.25;;;17.40;99.90;;;;;;4933180;28;20948;-78
2022/11/01 02:06:41;;;;;;;10.55;4.63;;;17.30;99.90;;;;;;4951613;28;38527;-77
2022/11/01 02:09:08;;;;;;;11.23;4.35;;;17.30;99.90;;;;;;4958264;28;36898;-78
2022/11/01 02:11:35;;;;;;;8.98;4.32;;;17.10;99.90;;;;;;4966255;28;37907;-77
2022/11/01 02:14:01;;;;;;;11.48;4.20;;;17.10;99.90;;;;;;4956324;28;38715;-78
2022/11/01 02:16:52;;;;;;;11.07;4.70;;;17.10;99.90;;;;;;4951989;28;37243;-80
2022/11/01 02:19:24;;;;;;;11.65;4.40;;;17.00;99.90;;;;;;4954454;28;38424;-78
2022/11/01 02:21:56;;;;;;;7.95;2.85;;;16.90;99.90;;;;;;4949939;28;36106;-76
2022/11/01 02:24:48;;;;;;;11.63;3.00;;;16.80;99.90;;;;;;4964173;28;37799;-80
2022/11/01 02:27:45;;;;;;;4.40;2.38;;;16.70;99.90;;;;;;4968228;28;39441;-81
2022/11/01 02:30:18;;;;;;;6.05;2.28;;;16.60;99.90;;;;;;4949635;28;39726;-77
2022/11/01 02:32:53;;;;;;;3.17;1.70;;;16.50;99.90;;;;;;4952163;28;37276;-81
2022/11/01 02:35:25;;;;;;;4.28;1.83;;;16.50;99.90;;;;;;4948307;28;37571;-79
2022/11/01 02:37:51;;;;;;;6.60;1.65;;;16.50;99.90;;;;;;4952335;28;38549;-79
2022/11/01 02:40:47;;;;;;;5.32;1.77;;;16.40;99.90;;;;;;4969865;28;39819;-79
2022/11/01 02:43:21;;;;;;;7.18;1.88;;;16.30;99.90;;;;;;4968799;28;37472;-79
2022/11/01 02:45:49;;;;;;;3.90;1.70;;;16.20;99.90;;;;;;4981116;28;37747;-80
2022/11/01 02:48:18;;;;;;;5.93;1.55;;;16.20;99.90;;;;;;4959079;28;37508;-80
2022/11/01 02:50:48;;;;;;;4.07;1.58;;;16.10;99.90;;;;;;4971312;28;38058;-78
2022/11/01 02:53:14;;;;;;;5.82;1.40;;;16.00;99.90;;;;;;4954139;28;36296;-76
2022/11/01 02:55:40;;;;;;;5.55;1.52;;;15.90;99.90;;;;;;4963821;28;36363;-78
2022/11/01 02:58:18;;;;;;;9.45;2.05;;;15.90;99.90;;;;;;4960194;28;36907;-78
2022/11/01 03:00:45;;;;;;;3.28;1.10;;;15.80;99.90;;;;;;4970952;28;39083;-78
2022/11/01 03:03:27;;;;;;;3.40;1.65;;;15.70;99.90;;;;;;4951087;28;37183;-78
2022/11/01 03:06:00;;;;;;;5.60;1.50;;;15.60;99.90;;;;;;4961826;28;38956;-77
2022/11/01 03:08:39;;;;;;;4.20;1.13;;;15.60;99.90;;;;;;4956009;28;36389;-79
2022/11/01 03:11:19;;;;;;;6.85;0.98;;;15.50;99.90;;;;;;4976732;28;37759;-77
2022/11/01 03:14:04;;;;;;;5.97;1.50;;;15.50;99.90;;;;;;4957244;28;36201;-78
2022/11/01 03:17:02;;;;;;;5.97;1.00;;;15.40;99.90;;;;;;4969475;28;48932;-79
2022/11/01 03:19:46;;;;;;;2.60;0.82;;;15.40;99.90;;;;;;4912621;28;47303;-77
2022/11/01 03:22:15;;;;;;;5.30;1.00;;;15.40;99.90;;;;;;4973189;28;39417;-78
2022/11/01 03:24:43;;;;;;;6.22;1.17;;;15.40;99.90;;;;;;4967572;28;38301;-78
2022/11/01 03:27:31;;;;;;;8.88;1.17;;;15.40;99.90;;;;;;4956969;28;39655;-79
2022/11/01 03:30:02;;;;;;;7.13;1.05;;;15.20;99.90;;;;;;4972560;28;38659;-77
2022/11/01 03:32:41;;;;;;;7.82;0.90;;;15.20;99.90;;;;;;4954719;28;36679;-77
2022/11/01 03:35:12;;;;;;;8.30;1.65;;;15.10;99.90;;;;;;4969216;28;36864;-78
2022/11/01 03:37:42;;;;;;;5.00;1.25;;;15.10;99.90;;;;;;4963593;28;39386;-78
2022/11/01 03:40:09;;;;;;;7.68;1.23;;;15.10;99.90;;;;;;4965000;28;37410;-77
2022/11/01 03:42:37;;;;;;;8.20;1.55;;;15.10;99.90;;;;;;4962079;28;37133;-78
2022/11/01 03:45:09;;;;;;;7.85;1.35;;;15.00;99.90;;;;;;4952949;28;35065;-78
2022/11/01 03:47:35;;;;;;;7.67;1.23;;;14.90;99.90;;;;;;4974395;28;39152;-77
2022/11/01 03:50:20;;;;;;;4.00;0.82;;;14.90;99.90;;;;;;4954737;28;37458;-77
2022/11/01 03:52:46;;;;;;;9.07;1.30;;;15.00;99.90;;;;;;4967370;28;48450;-77
2022/11/01 03:55:17;;;;;;;4.82;1.25;;;15.10;99.90;;;;;;4968440;28;37126;-77
2022/11/01 03:57:56;;;;;;;7.93;1.10;;;15.10;99.90;;;;;;4953568;28;37903;-77
2022/11/01 04:00:30;;;;;;;5.57;1.10;;;15.10;99.90;;;;;;4975768;28;38998;-76
2022/11/01 04:02:58;;;;;;;9.25;1.60;;;15.00;99.90;;;;;;4964873;28;37940;-77
2022/11/01 04:05:27;;;;;;;7.28;1.25;;;14.90;99.90;;;;;;4971056;28;36972;-79
2022/11/01 04:07:53;;;;;;;7.85;1.40;;;14.80;99.90;;;;;;4971985;28;40102;-78
2022/11/01 04:10:21;;;;;;;12.95;1.48;;;14.70;99.90;;;;;;4974284;28;38240;-78
2022/11/01 04:12:49;;;;;;;13.85;1.50;;;14.80;99.90;;;;;;4953680;28;35658;-77
2022/11/01 04:21:04;;;;;;;7.85;1.55;;;14.60;99.90;;;;;;4961862;28;49023;-78
2022/11/01 04:23:30;;;;;;;9.60;1.50;;;14.40;99.90;;;;;;4954535;28;47105;-78
2022/11/01 04:25:56;;;;;;;6.93;1.33;;;14.40;99.90;;;;;;4956909;28;36633;-78
2022/11/01 04:28:24;;;;;;;10.63;1.23;;;14.40;99.90;;;;;;4968468;28;39628;-77
2022/11/01 04:30:50;;;;;;;9.80;1.48;;;14.30;99.90;;;;;;4962348;28;39364;-78
2022/11/01 04:33:17;;;;;;;15.55;2.38;;;14.30;99.90;;;;;;4957060;28;36990;-79
2022/11/01 04:35:43;;;;;;;14.55;2.17;;;14.20;99.90;;;;;;4976283;28;37312;-79
2022/11/01 04:38:10;;;;;;;8.20;1.67;;;14.10;99.90;;;;;;4956632;28;37826;-79
2022/11/01 04:40:37;;;;;;;8.18;1.65;;;14.00;99.90;;;;;;4970643;28;38545;-79
2022/11/01 04:43:03;;;;;;;10.55;1.60;;;14.00;99.90;;;;;;4955899;28;36817;-78
2022/11/01 04:45:30;;;;;;;10.65;2.08;;;13.90;99.90;;;;;;4957621;28;37705;-78
2022/11/01 04:48:12;;;;;;;9.35;1.40;;;13.90;99.90;;;;;;4956870;28;37478;-77
2022/11/01 04:50:40;;;;;;;11.48;1.42;;;13.80;99.90;;;;;;4951168;28;46682;-80
2022/11/01 04:53:10;;;;;;;10.90;1.95;;;13.80;99.90;;;;;;4963159;28;38051;-78
2022/11/01 04:55:37;;;;;;;8.07;1.42;;;13.80;99.90;;;;;;4969794;28;36242;-79
2022/11/01 04:58:03;;;;;;;14.35;2.20;;;13.80;99.90;;;;;;4974904;28;38648;-78
2022/11/01 05:00:31;;;;;;;12.27;2.10;;;13.70;99.90;;;;;;4955537;28;38319;-78
2022/11/01 05:03:02;;;;;;;8.02;1.27;;;13.70;99.90;;;;;;4970859;28;38347;-79
2022/11/01 05:05:28;;;;;;;15.60;2.15;;;13.70;99.90;;;;;;4960771;28;47114;-80
2022/11/01 05:08:02;;;;;;;5.45;1.27;;;13.80;99.90;;;;;;4958132;28;37838;-79
2022/11/01 05:10:28;;;;;;;14.18;2.38;;;13.70;99.90;;;;;;4971582;28;48975;-77
2022/11/01 05:12:55;;;;;;;17.70;1.77;;;13.70;99.90;;;;;;4959854;28;37091;-81
2022/11/01 05:15:22;;;;;;;17.17;2.28;;;13.70;99.90;;;;;;4955700;28;37809;-79
2022/11/01 05:17:48;;;;;;;13.40;2.10;;;13.70;99.90;;;;;;4975886;28;39933;-80
2022/11/01 05:20:14;;;;;;;14.07;2.22;;;13.70;99.90;;;;;;4956938;28;37153;-77
2022/11/01 05:22:40;;;;;;;14.85;2.45;;;13.60;99.90;;;;;;4974776;28;38521;-78
2022/11/01 05:25:08;;;;;;;15.93;2.88;;;13.60;99.90;;;;;;4962335;28;38091;-81
2022/11/01 05:27:38;;;;;;;23.17;2.58;;;13.70;99.90;;;;;;4954148;28;37025;-80
2022/11/01 05:30:05;;;;;;;18.60;2.03;;;13.60;99.90;;;;;;4968771;28;39021;-80
2022/11/01 05:32:31;;;;;;;12.35;2.38;;;13.60;99.90;;;;;;4960125;28;35890;-78
2022/11/01 05:34:57;;;;;;;11.45;2.08;;;13.50;99.90;;;;;;4977120;28;38257;-78
2022/11/01 05:37:23;;;;;;;18.30;2.42;;;13.60;99.90;;;;;;4972430;28;39132;-80
2022/11/01 05:39:49;;;;;;;13.77;2.35;;;13.70;99.90;;;;;;4969302;28;39946;-80
2022/11/01 05:42:15;;;;;;;14.05;2.30;;;13.70;99.90;;;;;;4983472;28;37987;-78
2022/11/01 05:44:42;;;;;;;15.88;2.72;;;13.80;99.90;;;;;;4972918;28;37157;-79
2022/11/01 05:47:08;;;;;;;10.88;2.17;;;13.80;99.90;;;;;;4976086;28;39436;-79
2022/11/01 05:49:34;;;;;;;17.88;2.45;;;13.80;99.90;;;;;;4976969;28;38416;-79
2022/11/01 05:52:00;;;;;;;17.35;2.75;;;13.80;99.90;;;;;;4970561;28;36309;-79
2022/11/01 05:54:26;;;;;;;14.77;2.40;;;13.90;99.90;;;;;;4965569;28;36506;-78
2022/11/01 05:56:52;;;;;;;12.60;2.33;;;13.90;99.90;;;;;;4967934;28;38876;-79
2022/11/01 05:59:18;;;;;;;17.13;3.25;;;13.80;99.90;;;;;;4975599;28;38756;-78
2022/11/01 06:01:44;;;;;;;15.68;2.40;;;13.80;99.90;;;;;;4955369;28;36185;-79
2022/11/01 06:04:11;;;;;;;19.15;2.80;;;13.70;99.90;;;;;;4961260;28;37219;-79
2022/11/01 06:06:37;;;;;;;20.17;3.33;;;13.70;99.90;;;;;;4963598;28;39062;-78
2022/11/01 06:09:03;;;;;;;11.38;2.47;;;13.60;99.90;;;;;;4970883;28;36610;-79
2022/11/01 06:11:55;;;;;;;15.13;2.50;;;13.60;99.90;;;;;;4949745;28;36103;-78
2022/11/01 06:14:22;;;;;;;22.02;3.20;;;13.60;99.90;;;;;;4959208;28;35694;-79
2022/11/01 06:16:48;;;;;;;17.08;2.30;;;13.50;99.90;;;;;;4961478;28;43047;-77
2022/11/01 06:19:14;;;;;;;21.05;3.00;;;13.50;99.90;;;;;;4970206;28;37281;-79
2022/11/01 06:21:40;;;;;;;21.95;3.67;;;13.50;99.90;;;;;;4968725;28;38060;-80
2022/11/01 06:24:07;;;;;;;17.35;3.35;;;13.40;99.90;;;;;;4954988;28;36350;-79
2022/11/01 06:26:33;;;;;;;15.98;2.95;;;13.40;99.90;;;;;;4951810;28;37613;-77
2022/11/01 06:29:01;;;;;;;18.58;3.03;;;13.40;99.90;;;;;;4965671;28;39524;-78
2022/11/01 06:31:27;;;;;;;24.60;3.35;;;13.40;99.90;;;;;;4951908;28;38020;-80
2022/11/01 06:33:53;;;;;;;17.30;3.60;;;13.30;99.90;;;;;;4970115;28;37383;-79
2022/11/01 06:36:21;;;;;;;16.30;2.67;;;13.30;99.90;;;;;;4965965;28;39701;-80
2022/11/01 06:38:47;;;;;;;22.70;2.92;;;13.40;99.90;;;;;;4974450;28;38321;-79
2022/11/01 06:41:14;;;;;;;13.50;2.35;;;13.30;99.90;;;;;;4972293;28;38168;-78
2022/11/01 06:43:40;;;;;;;18.30;3.35;;;13.40;99.90;;;;;;4976271;28;36487;-77
2022/11/01 06:46:07;;;;;;;23.33;3.10;;;13.30;99.90;;;;;;4952117;28;36257;-78
2022/11/01 06:48:33;;;;;;;16.95;3.10;;;13.20;99.90;;;;;;4977205;28;38649;-80
2022/11/01 06:51:03;;;;;;;15.00;3.53;;;13.20;99.90;;;;;;4953653;28;38527;-80
2022/11/01 06:53:36;;;;;;;18.23;3.28;;;13.20;99.90;;;;;;4954562;28;47514;-81
2022/11/01 06:56:02;;;;;;;20.52;3.35;;;13.10;99.90;;;;;;4952901;28;39785;-76
2022/11/01 06:58:28;;;;;;;12.13;2.70;;;13.20;99.90;;;;;;4971340;28;38690;-76
2022/11/01 07:00:54;;;;;;;22.05;3.08;;;13.20;99.90;;;;;;4971239;28;38556;-79
2022/11/01 07:03:20;;;;;;;15.98;2.67;;;13.10;99.90;;;;;;4975071;28;37618;-78
2022/11/01 07:05:48;;;;;;;14.25;2.40;;;13.10;99.90;;;;;;4966868;28;38866;-78
2022/11/01 07:08:15;;;;;;;25.10;3.10;;;13.20;99.90;;;;;;4972647;28;39096;-79
2022/11/01 07:10:42;;;;;;;21.30;3.05;;;13.20;99.90;;;;;;4968891;28;39152;-78
2022/11/01 07:13:10;;;;;;;17.67;2.75;;;13.10;99.90;;;;;;4959412;28;37995;-76
2022/11/01 07:15:37;;;;;;;19.60;2.75;;;13.10;99.90;;;;;;4951079;28;37880;-78
2022/11/01 07:18:05;;;;;;;15.98;2.60;;;13.10;99.90;;;;;;4946596;28;38230;-81
2022/11/01 07:20:40;;;;;;;18.40;2.95;;;13.10;99.90;;;;;;4930560;28;36750;-77
2022/11/01 07:23:11;;;;;;;18.73;3.40;;;13.10;99.90;;;;;;4940925;28;36292;-77
2022/11/01 07:25:37;;;;;;;14.07;3.08;;;13.10;99.90;;;;;;4959974;28;39714;-77
2022/11/01 07:28:03;;;;;;;13.63;3.08;;;13.10;99.90;;;;;;4957422;28;39796;-77
2022/11/01 07:30:30;;;;;;;18.55;2.83;;;13.10;99.90;;;;;;4944308;28;37129;-78
2022/11/01 07:33:01;;;;;;;14.57;2.90;;;13.10;99.90;;;;;;4954551;28;37101;-78
2022/11/01 07:35:28;;;;;;;19.17;2.47;;;13.10;99.90;;;;;;4958811;28;39848;-78
2022/11/01 07:38:00;;;;;;;22.52;2.75;;;13.10;99.90;;;;;;4953836;28;38013;-79
2022/11/01 07:40:27;;;;;;;25.20;3.90;;;13.10;99.90;;;;;;4954929;28;38857;-77
2022/11/01 07:42:56;;;;;;;17.65;3.10;;;13.10;99.90;;;;;;4963762;28;35985;-77
2022/11/01 07:45:24;;;;;;;19.40;2.97;;;13.00;99.90;;;;;;4958809;28;38431;-77
2022/11/01 07:47:50;;;;;;;22.75;4.32;;;13.00;99.90;;;;;;4941872;28;38578;-77
2022/11/01 07:50:17;;;;;;;20.60;3.40;;;13.00;99.90;;;;;;4940453;28;38437;-77
2022/11/01 07:52:43;;;;;;;11.57;2.22;;;13.00;99.90;;;;;;4945053;28;37209;-78
2022/11/01 07:55:10;;;;;;;14.23;3.35;;;13.10;99.90;;;;;;4934959;28;37366;-79
2022/11/01 07:57:37;;;;;;;19.58;2.70;;;13.10;99.90;;;;;;4962237;28;39346;-79
2022/11/01 08:00:05;;;;;;;17.65;2.92;;;13.10;99.90;;;;;;4941544;28;37268;-78
2022/11/01 08:02:31;;;;;;;19.63;3.75;;;13.10;99.90;;;;;;4956105;28;37591;-77
2022/11/01 08:05:00;;;;;;;16.60;2.67;;;13.10;99.90;;;;;;4934616;28;38740;-78
2022/11/01 08:07:27;;;;;;;16.20;3.13;;;13.10;99.90;;;;;;4949437;28;38524;-78
2022/11/01 08:09:53;;;;;;;23.50;3.45;;;13.20;99.90;;;;;;4954907;28;38236;-75
2022/11/01 08:12:19;;;;;;;23.65;2.88;;;13.10;99.90;;;;;;4957986;28;37598;-76
2022/11/01 08:14:45;;;;;;;25.95;3.78;;;13.10;99.90;;;;;;4951427;28;39057;-77
2022/11/01 08:17:11;;;;;;;16.23;2.50;;;13.10;99.90;;;;;;4936015;28;37404;-78
2022/11/01 08:19:37;;;;;;;17.38;2.67;;;13.10;99.90;;;;;;4943965;28;37060;-77
2022/11/01 08:22:04;;;;;;;14.35;2.83;;;13.20;99.90;;;;;;4947420;28;38222;-78
2022/11/01 08:24:30;;;;;;;15.32;2.67;;;13.20;99.90;;;;;;4942706;28;38023;-78
2022/11/01 08:26:56;;;;;;;13.82;2.25;;;13.20;99.90;;;;;;4943885;28;38214;-78
2022/11/01 08:29:22;;;;;;;12.70;2.60;;;13.20;99.90;;;;;;4938063;28;36660;-76
2022/11/01 08:31:48;;;;;;;14.90;2.75;;;13.20;99.90;;;;;;4946397;28;36195;-76
2022/11/01 08:34:15;;;;;;;18.08;3.15;;;13.20;99.90;;;;;;4942922;28;39217;-77
2022/11/01 08:36:41;;;;;;;16.42;2.80;;;13.20;99.90;;;;;;4941351;28;37321;-80
2022/11/01 08:39:13;;;;;;;17.70;3.00;;;13.30;99.90;;;;;;4947885;28;38913;-77
2022/11/01 08:41:46;;;;;;;20.67;2.78;;;13.30;99.90;;;;;;4942371;28;36222;-77
2022/11/01 08:44:12;;;;;;;19.50;3.17;;;13.30;99.90;;;;;;4942562;28;38052;-78
2022/11/01 08:46:38;;;;;;;16.20;2.88;;;13.30;99.90;;;;;;4943622;28;38049;-78
2022/11/01 08:49:04;;;;;;;17.23;3.28;;;13.30;99.90;;;;;;4960408;28;38860;-77
2022/11/01 08:51:31;;;;;;;15.75;3.83;;;13.40;99.90;;;;;;4939920;28;36037;-77
2022/11/01 08:53:58;;;;;;;15.82;2.63;;;13.50;99.90;;;;;;4950490;28;37586;-75
2022/11/01 08:56:26;;;;;;;21.73;3.20;;;13.60;99.90;;;;;;4934949;28;37380;-78
2022/11/01 08:58:53;;;;;;;15.25;2.80;;;13.70;99.90;;;;;;4931612;28;36847;-76
2022/11/01 09:01:22;;;;;;;12.63;2.53;;;13.90;99.90;;;;;;4938551;28;38786;-79
2022/11/01 09:03:49;;;;;;;14.07;3.58;;;14.00;99.90;;;;;;4931480;28;36463;-75
2022/11/01 09:06:16;;;;;;;23.35;2.83;;;14.00;99.90;;;;;;4917006;28;37725;-79
2022/11/01 09:08:42;;;;;;;18.83;3.05;;;14.00;99.90;;;;;;4916296;28;38151;-76
2022/11/01 09:11:08;;;;;;;20.67;3.13;;;13.90;99.90;;;;;;4920275;28;37265;-76
2022/11/01 09:13:35;;;;;;;14.30;2.67;;;13.80;99.90;;;;;;4920038;28;38802;-79
2022/11/01 09:16:06;;;;;;;15.02;2.60;;;13.80;99.90;;;;;;4916431;28;38592;-77
2022/11/01 09:18:32;;;;;;;13.52;2.45;;;13.90;99.90;;;;;;4925098;28;48010;-76
2022/11/01 09:20:59;;;;;;;21.73;2.78;;;13.90;99.90;;;;;;4914672;28;36348;-77
2022/11/01 09:23:25;;;;;;;20.45;3.70;;;13.80;99.90;;;;;;4912490;28;37956;-79
2022/11/01 09:25:51;;;;;;;10.05;2.92;;;13.90;99.90;;;;;;4915066;28;37771;-77
2022/11/01 09:28:17;;;;;;;15.32;2.63;;;13.80;99.90;;;;;;4917007;28;36824;-77
2022/11/01 09:30:44;;;;;;;21.23;3.15;;;13.90;99.90;;;;;;4918215;28;39531;-77
2022/11/01 09:33:10;;;;;;;21.33;3.10;;;13.90;99.90;;;;;;4923975;28;38365;-77
2022/11/01 09:35:36;;;;;;;15.27;2.70;;;14.00;99.90;;;;;;4926524;28;37548;-79
2022/11/01 09:38:03;;;;;;;17.90;2.97;;;14.10;99.90;;;;;;4920450;28;37059;-77
2022/11/01 09:40:42;;;;;;;18.40;2.90;;;14.00;99.90;;;;;;4920444;28;34496;-76
2022/11/01 09:43:16;;;;;;;17.50;3.00;;;14.10;99.90;;;;;;4917521;28;38660;-79
2022/11/01 09:45:42;;;;;;;20.80;2.92;;;14.10;99.90;;;;;;4921545;28;38507;-76
2022/11/01 09:48:12;;;;;;;17.40;3.53;;;14.10;99.90;;;;;;4929747;28;38189;-76
2022/11/01 09:50:42;;;;;;;22.98;2.65;;;14.20;99.90;;;;;;4924071;28;37160;-78
2022/11/01 09:53:22;;;;;;;17.45;3.17;;;14.20;99.90;;;;;;4925462;28;38085;-76
2022/11/01 09:56:09;;;;;;;16.00;3.10;;;14.30;99.90;;;;;;4922632;28;39013;-77
2022/11/01 09:58:45;;;;;;;15.13;3.20;;;14.20;99.90;;;;;;4919319;28;49002;-77
2022/11/01 10:01:41;;;;;;;18.92;3.08;;;14.10;99.90;;;;;;4914845;28;37793;-79
2022/11/01 10:04:48;;;;;;;14.85;2.70;;;14.20;99.90;;;;;;4923926;28;38913;-77
2022/11/01 10:07:31;;;;;;;25.23;3.40;;;14.40;99.90;;;;;;4912728;28;38698;-78
2022/11/01 10:10:23;;;;;;;19.45;2.90;;;14.40;99.90;;;;;;4924720;28;37145;-77
2022/11/01 10:12:52;;;;;;;16.10;2.63;;;14.60;99.90;;;;;;4919216;28;48747;-76
2022/11/01 10:15:45;;;;;;;19.40;3.33;;;14.60;99.90;;;;;;4918269;28;41112;-76
2022/11/01 10:18:28;;;;;;;12.50;2.53;;;14.60;99.90;;;;;;4909170;28;37213;-75
2022/11/01 10:21:04;;;;;;;15.77;2.35;;;14.60;99.90;;;;;;4910244;28;37935;-77
2022/11/01 10:23:50;;;;;;;17.20;2.45;;;14.70;99.90;;;;;;4913152;28;36104;-76
2022/11/01 10:26:28;;;;;;;19.02;3.00;;;14.70;99.90;;;;;;4917632;28;38651;-76
2022/11/01 10:29:03;;;;;;;20.90;3.03;;;14.80;99.90;;;;;;4904511;28;38277;-78
2022/11/01 10:31:36;;;;;;;24.98;3.92;;;14.90;99.90;;;;;;4918334;28;36986;-74
2022/11/01 10:34:19;;;;;;;19.77;2.45;;;14.90;99.90;;;;;;4917953;28;35967;-75
2022/11/01 10:36:46;;;;;;;12.70;2.65;;;14.90;99.90;;;;;;4914548;28;47131;-76
2022/11/01 10:39:37;;;;;;;17.77;3.15;;;14.90;99.90;;;;;;4912204;28;37332;-75
2022/11/01 10:42:14;;;;;;;19.60;2.70;;;15.00;99.90;;;;;;4930020;28;36792;-76
2022/11/01 10:44:53;;;;;;;16.73;3.25;;;15.10;99.90;;;;;;4914982;28;36319;-75
2022/11/01 10:47:21;;;;;;;14.43;3.03;;;15.20;99.90;;;;;;4901108;28;39205;-74
2022/11/01 10:49:55;;;;;;;20.80;3.70;;;15.20;99.90;;;;;;4911467;28;38985;-74
2022/11/01 10:52:29;;;;;;;20.05;4.20;;;15.20;99.90;;;;;;4916559;28;38125;-74
2022/11/01 10:54:56;;;;;;;15.45;2.45;;;15.30;99.90;;;;;;4910958;28;37213;-74
2022/11/01 10:57:37;;;;;;;16.77;2.97;;;15.30;99.90;;;;;;4913827;28;39087;-74
2022/11/01 11:00:05;;;;;;;16.20;2.53;;;15.40;99.90;;;;;;4917605;28;38460;-75
2022/11/01 11:02:39;;;;;;;13.30;2.60;;;15.50;99.90;;;;;;4920446;28;37256;-80
2022/11/01 11:05:06;;;;;;;9.80;2.13;;;15.70;99.90;;;;;;4944315;28;40358;-77
2022/11/01 11:07:32;;;;;;;13.75;2.25;;;15.80;99.90;;;;;;4942867;28;37499;-78
2022/11/01 11:10:00;;;;;;;13.02;2.55;;;15.70;99.90;;;;;;4959908;28;38334;-77
2022/11/01 11:12:28;;;;;;;9.80;1.98;;;15.70;99.90;;;;;;4955041;28;38127;-78
2022/11/01 11:14:58;;;;;;;12.50;2.33;;;15.90;99.90;;;;;;4950808;28;38204;-84
2022/11/01 11:17:42;;;;;;;12.82;2.33;;;16.10;99.90;;;;;;4953874;28;38424;-84
2022/11/01 11:20:10;;;;;;;8.93;1.90;;;16.20;99.90;;;;;;4937601;28;37145;-82
2022/11/01 11:22:39;;;;;;;11.07;1.63;;;16.10;99.90;;;;;;4928569;28;37104;-77
2022/11/01 11:25:13;;;;;;;12.50;1.67;;;16.00;99.90;;;;;;4934815;28;36242;-77
2022/11/01 11:27:48;;;;;;;10.32;2.20;;;15.90;99.90;;;;;;4955702;28;38408;-75
2022/11/01 11:30:31;;;;;;;16.30;1.70;;;15.80;99.90;;;;;;4937795;28;37219;-76
2022/11/01 11:32:57;;;;;;;;;;;15.90;99.90;;;;;;4934538;28;37004;-72
2022/11/01 11:35:27;;;;;;;13.10;2.25;;;15.90;99.90;;;;;;4952319;28;37308;-74
2022/11/01 11:37:56;;;;;;;20.92;2.50;;;16.00;99.90;;;;;;4952745;28;35997;-76
2022/11/01 11:40:27;;;;;;;15.80;2.90;;;16.10;99.90;;;;;;4931992;28;37655;-76
2022/11/01 11:43:12;;;;;;;13.13;1.70;;;16.20;99.90;;;;;;4936120;28;40159;-78
2022/11/01 11:45:38;;;;;;;12.43;2.00;;;16.20;99.90;;;;;;4922408;28;46971;-75
2022/11/01 11:48:44;;;;;;;8.38;1.90;;;16.20;99.90;;;;;;4948279;28;38650;-75
2022/11/01 11:51:10;;;;;;;14.00;2.80;;;16.20;99.90;;;;;;4923366;28;37452;-76
2022/11/01 11:53:36;;;;;;;11.60;2.65;;;16.10;99.90;;;;;;4947406;28;38072;-75
2022/11/01 11:56:06;;;;;;;11.65;2.25;;;16.10;99.90;;;;;;4923291;28;36967;-75
2022/11/01 11:58:40;;;;;;;13.57;2.22;;;16.20;99.90;;;;;;4938567;28;48805;-77
2022/11/01 12:01:14;;;;;;;14.70;1.90;;;16.30;99.90;;;;;;4932167;28;37243;-78
2022/11/01 12:03:51;;;;;;;11.57;1.73;;;16.40;99.90;;;;;;4943272;28;47350;-77
2022/11/01 12:06:21;;;;;;;11.85;1.90;;;16.40;99.90;;;;;;4934790;28;35689;-74
2022/11/01 12:08:50;;;;;;;11.38;2.38;;;16.40;99.90;;;;;;4953804;28;39474;-76
2022/11/01 12:11:17;;;;;;;12.10;1.92;;;16.30;99.90;;;;;;4940542;28;38751;-76
2022/11/01 12:14:21;;;;;;;12.18;3.08;;;16.40;99.90;;;;;;4936080;28;36906;-77
2022/11/01 12:16:47;;;;;;;10.63;2.38;;;16.60;99.90;;;;;;4948344;28;49030;-79
2022/11/01 12:19:29;;;;;;;7.47;1.80;;;16.60;99.90;;;;;;4929209;28;39481;-75
2022/11/01 12:22:00;;;;;;;10.20;1.92;;;16.40;99.90;;;;;;4951547;28;38139;-76
2022/11/01 12:24:47;;;;;;;8.93;1.60;;;16.40;99.90;;;;;;4946430;28;38633;-77
2022/11/01 12:27:18;;;;;;;11.55;2.00;;;16.40;99.90;;;;;;4936115;28;36993;-83
2022/11/01 12:29:49;;;;;;;12.03;2.33;;;16.50;99.90;;;;;;4951530;28;37450;-77
2022/11/01 12:32:37;;;;;;;11.15;2.20;;;16.60;99.90;;;;;;4946790;28;39372;-83
2022/11/01 12:35:15;;;;;;;10.88;1.65;;;16.60;99.90;;;;;;4929528;28;39576;-84
2022/11/01 12:38:26;;;;;;;11.27;1.98;;;16.60;99.90;;;;;;4935686;28;36348;-79
2022/11/01 12:40:53;;;;;;;14.32;2.58;;;16.60;99.90;;;;;;4925812;28;48217;-84
2022/11/01 12:43:27;;;;;;;13.25;1.95;;;16.70;99.90;;;;;;4933697;28;37572;-85
2022/11/01 12:46:15;;;;;;;14.82;1.85;;;16.80;99.90;;;;;;4931042;28;38244;-82
2022/11/01 12:48:51;;;;;;;6.85;1.50;;;16.80;99.90;;;;;;4930157;28;47177;-84
2022/11/01 12:51:27;;;;;;;8.95;1.60;;;16.90;99.90;;;;;;4947209;28;38917;-79
2022/11/01 12:54:19;;;;;;;13.50;2.33;;;16.60;99.90;;;;;;4954193;28;38358;-76
2022/11/01 12:56:45;;;;;;;9.35;1.77;;;16.60;99.90;;;;;;4929986;28;49523;-75
2022/11/01 12:59:14;;;;;;;7.88;1.88;;;16.60;99.90;;;;;;4947489;28;37116;-75
2022/11/01 13:01:50;;;;;;;9.52;2.35;;;16.60;99.90;;;;;;4948574;28;40938;-76
2022/11/01 13:04:34;;;;;;;8.63;1.80;;;16.50;99.90;;;;;;4949180;28;38944;-73
2022/11/01 13:07:28;;;;;;;9.38;2.30;;;16.60;99.90;;;;;;4948272;28;38513;-75